Bethel, Utah
Current Conditions -  °F | °C
As of 11:52 PM on Wednesday 26 Nov 2014 (Local Time) from KMLF Reporting Station
Clear Clear  
Wind Chill: 22°   Ceiling: Unl
Heat Index: 30°   Visibility: 10mi
Dew Point: 18°   Wind: 8mph
Humidity: 61%   Direction: 180°S
Pressure: 30.41"   Gusts: NA
Location:  39.0932°N, 113.543°W
Report Text: KMLF 270652Z AUTO 18007KT 10SM CLR M01/M08 A3041 RMK AO2 SLP293 T10111078 401671044 TSNO
Loading
Personal Weather Stations






























Interactive Weather Map New forecast layout! Learn more

10-Day Weather Forecast

Advertisements
Track Severe Weather on mobile